createdAt,value
2017-11-17T00:00:14.127Z,9.94
2017-11-17T00:01:14.124Z,9.97
2017-11-17T00:02:14.118Z,10.01
2017-11-17T00:03:14.117Z,10.02
2017-11-17T00:04:14.111Z,10.04
2017-11-17T00:05:14.110Z,10.07
2017-11-17T00:06:14.106Z,10.09
2017-11-17T00:07:14.102Z,9.94
2017-11-17T00:08:14.100Z,10.04
2017-11-17T00:09:14.097Z,10.02
2017-11-17T00:10:14.091Z,10.04
2017-11-17T00:11:14.089Z,10.04
2017-11-17T00:12:14.085Z,10.04
2017-11-17T00:13:14.082Z,10.02
2017-11-17T00:14:14.079Z,9.98
2017-11-17T00:15:14.075Z,9.99
2017-11-17T00:16:14.072Z,10.01
2017-11-17T00:17:14.068Z,9.98
2017-11-17T00:18:14.066Z,9.98
2017-11-17T00:19:14.062Z,9.94
2017-11-17T00:20:14.060Z,9.97
2017-11-17T00:21:14.062Z,9.99
2017-11-17T00:22:14.053Z,9.97
2017-11-17T00:23:14.049Z,10.07
2017-11-17T00:24:14.046Z,9.97
2017-11-17T00:25:14.041Z,9.92
2017-11-17T00:26:14.039Z,9.87
2017-11-17T00:27:14.037Z,9.84
2017-11-17T00:28:14.030Z,9.87
2017-11-17T00:29:14.028Z,9.95
2017-11-17T00:30:14.024Z,9.89
2017-11-17T00:31:14.022Z,9.86
2017-11-17T00:32:14.018Z,9.84
2017-11-17T00:33:14.014Z,9.94
2017-11-17T00:34:14.009Z,9.82
2017-11-17T00:35:14.008Z,9.87
2017-11-17T00:36:14.003Z,9.82
2017-11-17T00:37:14.001Z,9.83
2017-11-17T00:38:13.996Z,9.77
2017-11-17T00:39:13.993Z,9.74
2017-11-17T00:40:13.990Z,9.72
2017-11-17T00:41:13.987Z,9.69
2017-11-17T00:42:13.982Z,9.74
2017-11-17T00:43:13.978Z,9.73
2017-11-17T00:44:13.977Z,9.76
2017-11-17T00:45:13.971Z,9.65
2017-11-17T00:46:13.968Z,9.72
2017-11-17T00:47:13.965Z,9.62
2017-11-17T00:48:13.961Z,9.65
2017-11-17T00:49:13.956Z,9.65
2017-11-17T00:50:13.953Z,9.72
2017-11-17T00:51:13.977Z,9.62
2017-11-17T00:52:13.947Z,9.65
2017-11-17T00:53:13.944Z,9.62
2017-11-17T00:54:13.939Z,9.62
2017-11-17T00:55:13.934Z,9.56
2017-11-17T00:56:13.932Z,9.58
2017-11-17T00:57:13.927Z,9.51
2017-11-17T00:58:13.925Z,9.56
2017-11-17T00:59:13.920Z,9.54
2017-11-17T01:00:13.917Z,9.56
2017-11-17T01:01:13.927Z,9.61
2017-11-17T01:02:13.908Z,9.54
2017-11-17T01:03:13.913Z,9.48
2017-11-17T01:04:13.905Z,9.50
2017-11-17T01:05:13.897Z,9.51
2017-11-17T01:06:13.898Z,9.54
2017-11-17T01:07:13.890Z,9.50
2017-11-17T01:08:13.886Z,9.48
2017-11-17T01:09:13.884Z,9.43
2017-11-17T01:10:13.879Z,9.56
2017-11-17T01:11:13.874Z,9.47
2017-11-17T01:12:13.871Z,9.48
2017-11-17T01:13:13.868Z,9.40
2017-11-17T01:14:13.863Z,9.43
2017-11-17T01:15:13.861Z,9.43
2017-11-17T01:16:13.856Z,9.43
2017-11-17T01:17:13.855Z,9.39
2017-11-17T01:18:13.849Z,9.43
2017-11-17T01:19:13.845Z,9.43
2017-11-17T01:20:13.842Z,9.41
2017-11-17T01:21:13.840Z,9.32
2017-11-17T01:22:13.833Z,9.37
2017-11-17T01:23:13.829Z,9.40
2017-11-17T01:24:13.850Z,9.44
2017-11-17T01:25:13.824Z,9.39
2017-11-17T01:26:13.820Z,9.44
2017-11-17T01:27:13.816Z,9.41
2017-11-17T01:28:13.811Z,9.46
2017-11-17T01:29:13.807Z,9.36
2017-11-17T01:30:13.804Z,9.43
2017-11-17T01:31:13.805Z,9.46
2017-11-17T01:32:13.798Z,9.40
2017-11-17T01:33:13.793Z,9.39
2017-11-17T01:34:13.789Z,9.41
2017-11-17T01:35:13.785Z,9.43
2017-11-17T01:36:13.782Z,9.40
2017-11-17T01:37:13.778Z,9.46
2017-11-17T01:38:13.773Z,9.39
2017-11-17T01:39:13.773Z,9.36
2017-11-17T01:40:13.766Z,9.41
2017-11-17T01:41:13.763Z,9.40
2017-11-17T01:42:13.758Z,9.26
2017-11-17T01:43:13.756Z,9.25
2017-11-17T01:44:13.753Z,9.29
2017-11-17T01:45:13.749Z,9.32
2017-11-17T01:46:13.743Z,9.25
2017-11-17T01:47:13.740Z,9.32
2017-11-17T01:48:13.735Z,9.28
2017-11-17T01:49:13.739Z,9.31
2017-11-17T01:50:13.727Z,9.28
2017-11-17T01:51:13.724Z,9.39
2017-11-17T01:52:13.721Z,9.34
2017-11-17T01:53:13.716Z,9.26
2017-11-17T01:54:13.713Z,9.28
2017-11-17T01:55:13.712Z,9.31
2017-11-17T01:56:13.707Z,9.28
2017-11-17T01:57:13.701Z,9.28
2017-11-17T01:58:13.697Z,9.32
2017-11-17T01:59:13.694Z,9.31
2017-11-17T02:00:13.691Z,9.34
2017-11-17T02:01:13.686Z,9.25
2017-11-17T02:02:13.683Z,9.29
2017-11-17T02:03:13.679Z,9.25
2017-11-17T02:04:13.676Z,9.22
2017-11-17T02:05:13.670Z,9.28
2017-11-17T02:06:13.667Z,9.18
2017-11-17T02:07:13.662Z,9.25
2017-11-17T02:08:13.661Z,9.25
2017-11-17T02:09:13.656Z,9.19
2017-11-17T02:10:13.658Z,9.22
2017-11-17T02:11:13.646Z,9.21
2017-11-17T02:12:13.644Z,9.14
2017-11-17T02:13:13.641Z,9.18
2017-11-17T02:14:13.636Z,9.19
2017-11-17T02:15:13.632Z,9.22
2017-11-17T02:16:13.629Z,9.26
2017-11-17T02:17:13.624Z,9.21
2017-11-17T02:18:13.620Z,9.21
2017-11-17T02:19:13.617Z,9.18
2017-11-17T02:20:13.614Z,9.14
2017-11-17T02:21:13.610Z,9.18
2017-11-17T02:22:13.604Z,9.16
2017-11-17T02:23:13.603Z,9.16
2017-11-17T02:24:13.597Z,9.18
2017-11-17T02:25:13.593Z,9.10
2017-11-17T02:26:13.588Z,9.19
2017-11-17T02:27:13.584Z,9.13
2017-11-17T02:28:13.587Z,9.11
2017-11-17T02:29:13.578Z,9.14
2017-11-17T02:30:13.574Z,9.16
2017-11-17T02:31:13.570Z,9.10
2017-11-17T02:32:13.565Z,9.11
2017-11-17T02:33:13.562Z,9.16
2017-11-17T02:34:13.556Z,9.11
2017-11-17T02:35:13.552Z,9.13
2017-11-17T02:36:13.556Z,9.04
2017-11-17T02:37:13.548Z,9.10
2017-11-17T02:38:13.540Z,9.11
2017-11-17T02:39:13.537Z,9.03
2017-11-17T02:40:13.532Z,9.04
2017-11-17T02:41:13.530Z,9.00
2017-11-17T02:42:13.529Z,8.94
2017-11-17T02:43:13.519Z,8.95
2017-11-17T02:44:13.517Z,8.97
2017-11-17T02:45:13.517Z,8.85
2017-11-17T02:46:13.506Z,8.94
2017-11-17T02:47:13.504Z,8.85
2017-11-17T02:48:13.499Z,8.81
2017-11-17T02:49:13.496Z,8.78
2017-11-17T02:50:13.491Z,8.73
2017-11-17T02:51:13.487Z,8.67
2017-11-17T02:52:13.485Z,8.71
2017-11-17T02:53:13.479Z,8.66
2017-11-17T02:54:13.482Z,8.69
2017-11-17T02:55:13.467Z,8.56
2017-11-17T02:56:13.465Z,8.60
2017-11-17T02:57:13.464Z,8.58
2017-11-17T02:58:13.456Z,8.63
2017-11-17T02:59:13.452Z,8.49
2017-11-17T03:00:13.449Z,8.56
2017-11-17T03:01:13.443Z,8.61
2017-11-17T03:02:13.436Z,8.60
2017-11-17T03:03:13.435Z,8.53
2017-11-17T03:04:13.429Z,8.49
2017-11-17T03:05:13.423Z,8.46
2017-11-17T03:06:13.418Z,8.49
2017-11-17T03:07:13.415Z,8.45
2017-11-17T03:08:13.409Z,8.44
2017-11-17T03:09:13.406Z,8.48
2017-11-17T03:10:13.401Z,8.41
2017-11-17T03:11:13.397Z,8.37
2017-11-17T03:12:13.392Z,8.31
2017-11-17T03:13:13.387Z,8.30
2017-11-17T03:14:13.382Z,8.31
2017-11-17T03:15:13.379Z,8.20
2017-11-17T03:16:13.373Z,8.30
2017-11-17T03:17:13.370Z,8.31
2017-11-17T03:18:13.364Z,8.34
2017-11-17T03:19:13.359Z,8.19
2017-11-17T03:20:13.354Z,8.23
2017-11-17T03:21:13.350Z,8.15
2017-11-17T03:22:13.345Z,8.16
2017-11-17T03:23:13.340Z,8.12
2017-11-17T03:24:13.336Z,8.18
2017-11-17T03:25:13.332Z,8.09
2017-11-17T03:26:13.327Z,8.05
2017-11-17T03:27:13.320Z,8.00
2017-11-17T03:28:13.317Z,7.95
2017-11-17T03:29:13.311Z,8.01
2017-11-17T03:30:13.307Z,7.90
2017-11-17T03:31:13.306Z,7.94
2017-11-17T03:32:13.297Z,7.87
2017-11-17T03:33:13.292Z,7.70
2017-11-17T03:34:13.285Z,7.67
2017-11-17T03:35:13.282Z,7.73
2017-11-17T03:36:13.277Z,7.73
2017-11-17T03:37:13.274Z,7.79
2017-11-17T03:38:13.266Z,7.69
2017-11-17T03:39:13.269Z,7.77
2017-11-17T03:40:13.257Z,7.76
2017-11-17T03:41:13.253Z,7.69
2017-11-17T03:42:13.246Z,7.66
2017-11-17T03:43:13.242Z,7.58
2017-11-17T03:44:13.242Z,7.66
2017-11-17T03:45:13.238Z,7.56
2017-11-17T03:46:13.228Z,7.54
2017-11-17T03:47:13.221Z,7.54
2017-11-17T03:48:13.217Z,7.56
2017-11-17T03:49:13.213Z,7.60
2017-11-17T03:50:13.210Z,7.58
2017-11-17T03:51:13.202Z,7.51
2017-11-17T03:52:13.198Z,7.39
2017-11-17T03:53:13.193Z,7.45
2017-11-17T03:54:13.187Z,7.54
2017-11-17T03:55:13.182Z,7.48
2017-11-17T03:56:13.176Z,7.43
2017-11-17T03:57:13.171Z,7.40
2017-11-17T03:58:13.166Z,7.38
2017-11-17T03:59:13.160Z,7.36
2017-11-17T04:00:13.155Z,7.35
2017-11-17T04:01:13.151Z,7.33
2017-11-17T04:02:13.145Z,7.35
2017-11-17T04:03:13.144Z,7.25
2017-11-17T04:04:13.134Z,7.28
2017-11-17T04:05:13.131Z,7.25
2017-11-17T04:06:13.124Z,7.23
2017-11-17T04:07:13.120Z,7.23
2017-11-17T04:08:13.114Z,7.28
2017-11-17T04:09:13.110Z,7.20
2017-11-17T04:10:13.101Z,7.15
2017-11-17T04:11:13.098Z,7.13
2017-11-17T04:12:13.091Z,7.11
2017-11-17T04:13:13.131Z,7.11
2017-11-17T04:14:13.080Z,7.11
2017-11-17T04:15:13.080Z,6.97
2017-11-17T04:16:13.071Z,7.03
2017-11-17T04:17:13.066Z,7.10
2017-11-17T04:18:13.087Z,6.96
2017-11-17T04:19:13.054Z,6.93
2017-11-17T04:20:13.049Z,7.00
2017-11-17T04:21:13.044Z,7.03
2017-11-17T04:22:13.037Z,7.00
2017-11-17T04:23:13.031Z,6.93
2017-11-17T04:24:13.027Z,6.87
2017-11-17T04:25:13.021Z,6.84
2017-11-17T04:26:13.020Z,6.78
2017-11-17T04:27:13.010Z,6.81
2017-11-17T04:28:13.005Z,6.84
2017-11-17T04:29:13.001Z,6.81
2017-11-17T04:30:12.993Z,6.85
2017-11-17T04:31:12.989Z,6.78
2017-11-17T04:32:12.984Z,6.74
2017-11-17T04:33:12.977Z,6.72
2017-11-17T04:34:12.971Z,6.77
2017-11-17T04:35:12.965Z,6.75
2017-11-17T04:36:12.959Z,6.72
2017-11-17T04:37:12.955Z,6.74
2017-11-17T04:38:12.948Z,6.78
2017-11-17T04:39:12.944Z,6.75
2017-11-17T04:40:12.938Z,6.66
2017-11-17T04:41:12.933Z,6.75
2017-11-17T04:42:12.928Z,6.67
2017-11-17T04:43:12.920Z,6.69
2017-11-17T04:44:12.915Z,6.67
2017-11-17T04:45:12.910Z,6.70
2017-11-17T04:46:12.904Z,6.74
2017-11-17T04:47:12.899Z,6.70
2017-11-17T04:48:12.893Z,6.64
2017-11-17T04:49:12.887Z,6.67
2017-11-17T04:50:12.882Z,6.67
2017-11-17T04:51:12.876Z,6.63
2017-11-17T04:52:12.869Z,6.60
2017-11-17T04:53:12.865Z,6.63
2017-11-17T04:54:12.857Z,6.74
2017-11-17T04:55:12.852Z,6.67
2017-11-17T04:56:12.846Z,6.70
2017-11-17T04:57:12.840Z,6.72
2017-11-17T04:58:12.833Z,6.66
2017-11-17T04:59:12.830Z,6.75
2017-11-17T05:00:12.823Z,6.59
2017-11-17T05:01:12.818Z,6.56
2017-11-17T05:02:12.812Z,6.56
2017-11-17T05:03:12.805Z,6.60
2017-11-17T05:04:12.801Z,6.60
2017-11-17T05:05:12.795Z,6.62
2017-11-17T05:06:12.789Z,6.52
2017-11-17T05:07:12.783Z,6.48
2017-11-17T05:08:12.777Z,6.49
2017-11-17T05:09:12.772Z,6.51
2017-11-17T05:10:12.764Z,6.49
2017-11-17T05:11:12.760Z,6.51
2017-11-17T05:12:12.754Z,6.49
2017-11-17T05:13:12.752Z,6.36
2017-11-17T05:14:12.740Z,6.38
2017-11-17T05:15:12.742Z,6.26
2017-11-17T05:16:12.729Z,6.27
2017-11-17T05:17:12.725Z,6.30
2017-11-17T05:18:12.719Z,6.22
2017-11-17T05:19:12.712Z,6.17
2017-11-17T05:20:12.705Z,6.14
2017-11-17T05:21:12.700Z,6.14
2017-11-17T05:22:12.695Z,6.11
2017-11-17T05:23:12.691Z,6.16
2017-11-17T05:24:12.681Z,6.16
2017-11-17T05:25:12.676Z,6.11
2017-11-17T05:26:12.669Z,5.98
2017-11-17T05:27:12.664Z,6.08
2017-11-17T05:28:12.658Z,6.16
2017-11-17T05:29:12.652Z,6.19
2017-11-17T05:30:12.646Z,6.16
2017-11-17T05:31:12.639Z,6.05
2017-11-17T05:32:12.634Z,6.01
2017-11-17T05:33:12.627Z,6.05
2017-11-17T05:34:12.620Z,5.98
2017-11-17T05:35:12.615Z,5.97
2017-11-17T05:36:12.609Z,5.99
2017-11-17T05:37:12.603Z,5.84
2017-11-17T05:38:12.595Z,5.86
2017-11-17T05:39:12.590Z,5.83
2017-11-17T05:40:12.584Z,5.86
2017-11-17T05:41:12.580Z,5.79
2017-11-17T05:42:12.571Z,5.69
2017-11-17T05:43:12.567Z,5.62
2017-11-17T05:44:12.559Z,5.65
2017-11-17T05:45:12.554Z,5.62
2017-11-17T05:46:12.549Z,5.53
2017-11-17T05:47:12.541Z,5.53
2017-11-17T05:48:12.537Z,5.54
2017-11-17T05:49:12.531Z,5.46
2017-11-17T05:50:12.523Z,5.35
2017-11-17T05:51:12.522Z,5.32
2017-11-17T05:52:12.512Z,5.46
2017-11-17T05:53:12.508Z,5.46
2017-11-17T05:54:12.499Z,5.54
2017-11-17T05:55:12.494Z,5.51
2017-11-17T05:56:12.486Z,5.62
2017-11-17T05:57:12.481Z,5.59
2017-11-17T05:58:12.474Z,5.62
2017-11-17T05:59:12.469Z,5.53
2017-11-17T06:00:12.463Z,5.51
2017-11-17T06:01:12.456Z,5.41
2017-11-17T06:02:12.450Z,5.44
2017-11-17T06:03:12.443Z,5.46
2017-11-17T06:04:12.438Z,5.38
2017-11-17T06:05:12.432Z,5.46
2017-11-17T06:06:12.425Z,5.41
2017-11-17T06:07:12.417Z,5.38
2017-11-17T06:08:12.412Z,5.33
2017-11-17T06:09:12.406Z,5.29
2017-11-17T06:10:12.441Z,5.29
2017-11-17T06:11:12.394Z,5.30
2017-11-17T06:12:12.389Z,5.25
2017-11-17T06:13:12.382Z,5.28
2017-11-17T06:14:12.375Z,5.25
2017-11-17T06:15:12.367Z,5.17
2017-11-17T06:16:12.362Z,5.08
2017-11-17T06:17:12.356Z,5.12
2017-11-17T06:18:12.351Z,4.99
2017-11-17T06:19:12.344Z,5.04
2017-11-17T06:20:12.337Z,4.94
2017-11-17T06:21:12.330Z,4.74
2017-11-17T06:22:12.324Z,4.71
2017-11-17T06:23:12.317Z,4.84
2017-11-17T06:24:12.311Z,4.84
2017-11-17T06:25:12.305Z,4.73
2017-11-17T06:26:12.300Z,4.77
2017-11-17T06:27:12.293Z,4.67
2017-11-17T06:28:12.287Z,4.70
2017-11-17T06:29:12.280Z,4.82
2017-11-17T06:30:12.275Z,4.87
2017-11-17T06:31:12.268Z,4.89
2017-11-17T06:32:12.268Z,4.92
2017-11-17T06:33:12.255Z,5.08
2017-11-17T06:34:12.248Z,5.15
2017-11-17T06:35:12.242Z,5.15
2017-11-17T06:36:12.236Z,5.21
2017-11-17T06:37:12.229Z,5.21
2017-11-17T06:38:12.222Z,5.18
2017-11-17T06:39:12.216Z,5.20
2017-11-17T06:40:12.209Z,5.17
2017-11-17T06:41:12.203Z,5.18
2017-11-17T06:42:12.196Z,5.30
2017-11-17T06:43:12.190Z,5.30
2017-11-17T06:44:12.183Z,5.18
2017-11-17T06:45:12.178Z,5.15
2017-11-17T06:46:12.170Z,5.11
2017-11-17T06:47:12.163Z,5.05
2017-11-17T06:48:12.157Z,4.96
2017-11-17T06:49:12.150Z,4.92
2017-11-17T06:50:12.144Z,4.87
2017-11-17T06:51:12.137Z,4.90
2017-11-17T06:52:12.137Z,4.93
2017-11-17T06:53:12.124Z,4.94
2017-11-17T06:54:12.117Z,5.04
2017-11-17T06:55:12.110Z,4.94
2017-11-17T06:56:12.103Z,4.93
2017-11-17T06:57:12.098Z,5.04
2017-11-17T06:58:12.090Z,5.00
2017-11-17T06:59:12.084Z,5.02
2017-11-17T07:00:12.077Z,4.99
2017-11-17T07:01:12.071Z,4.96
2017-11-17T07:02:12.063Z,4.92
2017-11-17T07:03:12.057Z,4.87
2017-11-17T07:04:12.050Z,4.87
2017-11-17T07:05:12.043Z,4.78
2017-11-17T07:06:12.038Z,4.74
2017-11-17T07:07:12.031Z,4.78
2017-11-17T07:08:12.029Z,4.90
2017-11-17T07:09:12.017Z,4.80
2017-11-17T07:10:12.010Z,4.80
2017-11-17T07:11:12.003Z,4.86
2017-11-17T07:12:11.998Z,4.87
2017-11-17T07:13:11.989Z,4.82
2017-11-17T07:14:11.987Z,4.89
2017-11-17T07:15:11.975Z,4.80
2017-11-17T07:16:11.969Z,4.71
2017-11-17T07:17:11.963Z,4.77
2017-11-17T07:18:11.958Z,4.84
2017-11-17T07:19:11.949Z,4.90
2017-11-17T07:20:11.942Z,4.90
2017-11-17T07:21:11.935Z,4.99
2017-11-17T07:22:11.927Z,4.90
2017-11-17T07:23:11.921Z,4.78
2017-11-17T07:24:11.914Z,4.90
2017-11-17T07:25:11.908Z,4.87
2017-11-17T07:26:11.901Z,4.80
2017-11-17T07:27:11.894Z,4.70
2017-11-17T07:28:11.886Z,4.78
2017-11-17T07:29:11.880Z,4.90
2017-11-17T07:30:11.873Z,4.84
2017-11-17T07:31:11.865Z,4.86
2017-11-17T07:32:11.862Z,4.93
2017-11-17T07:33:11.853Z,5.04
2017-11-17T07:34:11.848Z,5.17
2017-11-17T07:35:11.839Z,5.29
2017-11-17T07:36:11.833Z,5.46
2017-11-17T07:37:11.826Z,5.44
2017-11-17T07:38:11.820Z,5.43
2017-11-17T07:39:11.812Z,5.46
2017-11-17T07:40:11.805Z,5.44
2017-11-17T07:41:11.814Z,5.53
2017-11-17T07:42:11.792Z,5.56
2017-11-17T07:43:11.786Z,5.65
2017-11-17T07:44:11.779Z,5.76
2017-11-17T07:45:11.771Z,5.69
2017-11-17T07:46:11.765Z,5.66
2017-11-17T07:47:11.758Z,5.71
2017-11-17T07:48:11.753Z,5.76
2017-11-17T07:49:11.746Z,5.76
2017-11-17T07:50:11.739Z,5.79
2017-11-17T07:51:11.732Z,5.75
2017-11-17T07:52:11.724Z,5.83
2017-11-17T07:53:11.719Z,5.82
2017-11-17T07:54:11.711Z,5.86
2017-11-17T07:55:11.706Z,5.87
2017-11-17T07:56:11.699Z,5.83
2017-11-17T07:57:11.700Z,5.84
2017-11-17T07:58:11.685Z,5.86
2017-11-17T07:59:11.677Z,5.87
2017-11-17T08:00:11.672Z,5.80
2017-11-17T08:01:11.666Z,5.86
2017-11-17T08:02:11.657Z,5.86
2017-11-17T08:03:11.652Z,5.83
2017-11-17T08:04:11.645Z,5.89
2017-11-17T08:05:11.639Z,6.04
2017-11-17T08:06:11.632Z,5.99
2017-11-17T08:07:11.625Z,5.99
2017-11-17T08:08:11.620Z,6.02
2017-11-17T08:09:11.613Z,6.04
2017-11-17T08:10:11.605Z,6.11
2017-11-17T08:11:11.598Z,6.14
2017-11-17T08:12:11.592Z,6.16
2017-11-17T08:13:11.587Z,6.16
2017-11-17T08:14:11.578Z,6.16
2017-11-17T08:15:11.574Z,6.28
2017-11-17T08:16:11.567Z,6.26
2017-11-17T08:17:11.560Z,6.19
2017-11-17T08:18:11.553Z,6.28
2017-11-17T08:19:11.547Z,6.26
2017-11-17T08:20:11.541Z,6.36
2017-11-17T08:21:11.535Z,6.26
2017-11-17T08:22:11.528Z,6.36
2017-11-17T08:23:11.521Z,6.33
2017-11-17T08:24:11.516Z,6.36
2017-11-17T08:25:11.510Z,6.33
2017-11-17T08:26:11.501Z,6.38
2017-11-17T08:27:11.495Z,6.45
2017-11-17T08:28:11.491Z,6.46
2017-11-17T08:29:11.482Z,6.48
2017-11-17T08:30:11.477Z,6.56
2017-11-17T08:31:11.474Z,6.51
2017-11-17T08:32:11.464Z,6.48
2017-11-17T08:33:11.458Z,6.60
2017-11-17T08:34:11.450Z,6.59
2017-11-17T08:35:11.452Z,6.57
2017-11-17T08:36:11.439Z,6.59
2017-11-17T08:37:11.442Z,6.56
2017-11-17T08:38:11.426Z,6.69
2017-11-17T08:39:11.420Z,6.59
2017-11-17T08:40:11.420Z,6.67
2017-11-17T08:41:11.409Z,6.59
2017-11-17T08:42:11.403Z,6.66
2017-11-17T08:43:11.399Z,6.67
2017-11-17T08:44:11.396Z,6.74
2017-11-17T08:45:11.384Z,6.78
2017-11-17T08:46:11.477Z,6.85
2017-11-17T08:47:11.374Z,6.87
2017-11-17T08:48:11.368Z,6.85
2017-11-17T08:49:11.359Z,6.96
2017-11-17T08:50:11.353Z,6.96
2017-11-17T08:51:11.498Z,6.89
2017-11-17T08:52:11.341Z,6.96
2017-11-17T08:53:11.335Z,7.06
2017-11-17T08:54:11.329Z,6.99
2017-11-17T08:55:11.322Z,7.06
2017-11-17T08:56:11.316Z,7.07
2017-11-17T08:57:11.312Z,7.15
2017-11-17T08:58:11.304Z,7.06
2017-11-17T08:59:11.299Z,7.05
2017-11-17T09:00:11.293Z,7.14
2017-11-17T09:01:11.288Z,7.18
2017-11-17T09:02:11.279Z,7.24
2017-11-17T09:03:11.276Z,7.28
2017-11-17T09:04:11.270Z,7.32
2017-11-17T09:05:11.264Z,7.43
2017-11-17T09:06:11.257Z,7.35
2017-11-17T09:07:11.252Z,7.42
2017-11-17T09:08:11.247Z,7.36
2017-11-17T09:09:11.241Z,7.45
2017-11-17T09:10:11.235Z,7.40
2017-11-17T09:11:11.233Z,7.48
2017-11-17T09:12:11.224Z,7.53
2017-11-17T09:13:11.224Z,7.53
2017-11-17T09:14:11.212Z,7.53
2017-11-17T09:15:11.207Z,7.57
2017-11-17T09:16:11.203Z,7.60
2017-11-17T09:17:11.196Z,7.61
2017-11-17T09:18:11.191Z,7.69
2017-11-17T09:19:11.184Z,7.69
2017-11-17T09:20:11.178Z,7.80
2017-11-17T09:21:11.173Z,7.82
2017-11-17T09:22:11.167Z,7.91
2017-11-17T09:23:11.164Z,7.94
2017-11-17T09:24:11.157Z,7.91
2017-11-17T09:25:11.152Z,8.08
2017-11-17T09:26:11.146Z,8.12
2017-11-17T09:27:11.140Z,8.18
2017-11-17T09:28:11.136Z,8.12
2017-11-17T09:29:11.129Z,8.20
2017-11-17T09:30:11.123Z,8.20
2017-11-17T09:31:11.121Z,8.26
2017-11-17T09:32:11.114Z,8.20
2017-11-17T09:33:11.108Z,8.19
2017-11-17T09:34:11.101Z,8.19
2017-11-17T09:35:11.097Z,8.16
2017-11-17T09:36:11.093Z,8.30
2017-11-17T09:37:11.148Z,8.42
2017-11-17T09:38:11.082Z,8.37
2017-11-17T09:39:11.076Z,8.42
2017-11-17T09:40:11.072Z,8.38
2017-11-17T09:41:11.066Z,8.44
2017-11-17T09:42:11.064Z,8.41
2017-11-17T09:43:11.056Z,8.53
2017-11-17T09:44:11.052Z,8.46
2017-11-17T09:45:11.046Z,8.49
2017-11-17T09:46:11.039Z,8.60
2017-11-17T09:47:11.035Z,8.64
2017-11-17T09:48:11.031Z,8.66
2017-11-17T09:49:11.025Z,8.70
2017-11-17T09:50:11.020Z,8.82
2017-11-17T09:51:11.015Z,8.82
2017-11-17T09:52:11.160Z,8.88
2017-11-17T09:53:11.011Z,8.91
2017-11-17T09:54:11.000Z,8.94
2017-11-17T09:55:10.996Z,8.95
2017-11-17T09:56:10.991Z,9.04
2017-11-17T09:57:11.138Z,9.11
2017-11-17T09:58:10.980Z,9.16
2017-11-17T09:59:10.975Z,9.18
2017-11-17T10:00:10.970Z,9.16
2017-11-17T10:01:10.967Z,9.25
2017-11-17T10:02:11.012Z,9.41
2017-11-17T10:03:10.957Z,9.46
2017-11-17T10:04:10.953Z,9.65
2017-11-17T10:05:10.947Z,9.86
2017-11-17T10:06:10.944Z,10.12
2017-11-17T10:07:10.939Z,10.63
2017-11-17T10:08:10.935Z,11.44
2017-11-17T10:09:10.935Z,12.24
2017-11-17T10:10:10.927Z,12.85
2017-11-17T10:11:10.925Z,13.33
2017-11-17T10:12:10.923Z,13.74
2017-11-17T10:13:10.919Z,14.20
2017-11-17T10:14:10.917Z,14.22
2017-11-17T10:15:10.916Z,14.28
2017-11-17T10:16:10.914Z,14.17
2017-11-17T10:17:10.914Z,14.11
2017-11-17T10:18:10.916Z,14.37
2017-11-17T10:19:10.912Z,14.94
2017-11-17T10:20:10.910Z,15.31
2017-11-17T10:21:10.912Z,15.52
2017-11-17T10:22:10.910Z,15.75
2017-11-17T10:23:10.910Z,15.55
2017-11-17T10:24:10.910Z,15.22
2017-11-17T10:25:10.912Z,14.99
2017-11-17T10:26:10.913Z,14.73
2017-11-17T10:27:10.913Z,14.47
2017-11-17T10:28:10.917Z,13.81
2017-11-17T10:29:10.917Z,13.57
2017-11-17T10:30:10.922Z,13.89
2017-11-17T10:31:10.919Z,14.23
2017-11-17T10:32:10.924Z,14.23
2017-11-17T10:33:10.924Z,14.53
2017-11-17T10:34:10.926Z,12.32
2017-11-17T10:35:10.926Z,11.35
2017-11-17T10:36:10.934Z,10.79
2017-11-17T10:37:10.932Z,10.61
2017-11-17T10:38:10.932Z,10.38
2017-11-17T10:39:10.932Z,10.25
2017-11-17T10:40:10.936Z,10.26
2017-11-17T10:41:10.935Z,10.59
2017-11-17T10:42:10.940Z,10.99
2017-11-17T10:43:10.938Z,11.04
2017-11-17T10:44:10.938Z,11.29
2017-11-17T10:45:10.938Z,11.33
2017-11-17T10:46:10.937Z,11.32
2017-11-17T10:47:10.937Z,11.17
2017-11-17T10:48:10.947Z,10.92
2017-11-17T10:49:10.938Z,10.60
2017-11-17T10:50:10.938Z,10.41
2017-11-17T10:51:10.937Z,10.31
2017-11-17T10:52:10.946Z,10.31
2017-11-17T10:53:10.936Z,10.31
2017-11-17T10:54:10.936Z,10.40
2017-11-17T10:55:10.936Z,10.68
2017-11-17T10:56:10.935Z,10.74
2017-11-17T10:57:10.934Z,10.72
2017-11-17T10:58:10.934Z,10.51
2017-11-17T10:59:10.932Z,10.44
2017-11-17T11:00:10.932Z,10.69
2017-11-17T11:01:10.928Z,10.64
2017-11-17T11:02:10.928Z,10.41
2017-11-17T11:03:10.925Z,10.35
2017-11-17T11:04:10.924Z,10.33
2017-11-17T11:05:10.924Z,10.23
2017-11-17T11:06:10.921Z,10.35
2017-11-17T11:07:10.918Z,10.20
2017-11-17T11:08:10.918Z,10.35
2017-11-17T11:09:10.916Z,10.37
2017-11-17T11:10:10.913Z,10.37
2017-11-17T11:11:10.912Z,10.25
2017-11-17T11:12:10.911Z,10.33
2017-11-17T11:13:10.910Z,10.23
2017-11-17T11:14:10.905Z,10.15
2017-11-17T11:15:10.903Z,9.98
2017-11-17T11:16:10.902Z,10.01
2017-11-17T11:17:10.901Z,10.01
2017-11-17T11:18:10.898Z,9.99
2017-11-17T11:19:10.896Z,10.02
2017-11-17T11:20:10.893Z,10.07
2017-11-17T11:21:10.891Z,10.10
2017-11-17T11:22:10.888Z,10.07
2017-11-17T11:23:10.887Z,10.02
2017-11-17T11:24:10.883Z,9.98
2017-11-17T11:25:10.882Z,9.92
2017-11-17T11:26:10.878Z,9.99
2017-11-17T11:27:10.889Z,9.83
2017-11-17T11:28:10.873Z,9.86
2017-11-17T11:29:10.872Z,10.01
2017-11-17T11:30:10.869Z,10.12
2017-11-17T11:31:10.870Z,10.25
2017-11-17T11:32:10.865Z,10.31
2017-11-17T11:33:10.861Z,10.30
2017-11-17T11:34:10.858Z,10.33
2017-11-17T11:35:10.856Z,10.42
2017-11-17T11:36:10.861Z,10.28
2017-11-17T11:37:10.851Z,10.31
2017-11-17T11:38:10.848Z,10.28
2017-11-17T11:39:10.849Z,10.16
2017-11-17T11:40:10.843Z,10.19
2017-11-17T11:41:10.848Z,10.12
2017-11-17T11:42:10.838Z,10.07
2017-11-17T11:43:10.836Z,9.98
2017-11-17T11:44:10.831Z,10.13
2017-11-17T11:45:10.830Z,10.15
2017-11-17T11:46:10.825Z,10.19
2017-11-17T11:47:10.824Z,10.07
2017-11-17T11:48:10.821Z,10.02
2017-11-17T11:49:10.820Z,10.05
2017-11-17T11:50:10.819Z,10.07
2017-11-17T11:51:10.814Z,9.97
2017-11-17T11:52:10.810Z,9.95
2017-11-17T11:53:10.906Z,9.91
2017-11-17T11:54:10.803Z,9.83
2017-11-17T11:55:10.801Z,9.91
2017-11-17T11:56:10.796Z,9.87
2017-11-17T11:57:10.793Z,9.79
2017-11-17T11:58:10.791Z,9.87
2017-11-17T11:59:10.787Z,9.91
2017-11-17T12:00:10.786Z,10.02
2017-11-17T12:01:10.783Z,10.01
2017-11-17T12:02:10.778Z,10.01
2017-11-17T12:03:10.777Z,10.02
2017-11-17T12:04:10.773Z,10.05
2017-11-17T12:05:10.772Z,9.99
2017-11-17T12:06:10.767Z,10.01
2017-11-17T12:07:10.763Z,9.98
2017-11-17T12:08:10.760Z,9.95
2017-11-17T12:09:10.756Z,10.02
2017-11-17T12:10:10.790Z,9.91
2017-11-17T12:11:10.751Z,10.01
2017-11-17T12:12:10.747Z,9.98
2017-11-17T12:13:10.744Z,10.07
2017-11-17T12:14:10.790Z,10.04
2017-11-17T12:15:10.737Z,10.16
2017-11-17T12:16:10.736Z,10.10
2017-11-17T12:17:10.731Z,10.05
2017-11-17T12:18:10.728Z,10.01
2017-11-17T12:19:10.725Z,10.10
2017-11-17T12:20:10.727Z,10.05
2017-11-17T12:21:10.719Z,10.05
2017-11-17T12:22:10.714Z,9.99
2017-11-17T12:23:10.712Z,9.95
2017-11-17T12:24:10.707Z,10.04
2017-11-17T12:25:10.705Z,10.09
2017-11-17T12:26:10.704Z,10.01
2017-11-17T12:27:10.698Z,9.87
2017-11-17T12:28:10.700Z,9.97
2017-11-17T12:29:10.693Z,9.91
2017-11-17T12:30:10.689Z,9.80
2017-11-17T12:31:10.686Z,9.69
2017-11-17T12:32:10.688Z,9.83
2017-11-17T12:33:10.678Z,9.80
2017-11-17T12:34:10.676Z,9.94
2017-11-17T12:35:10.672Z,9.84
2017-11-17T12:36:10.668Z,9.87
2017-11-17T12:37:10.664Z,9.91
2017-11-17T12:38:10.666Z,9.83
2017-11-17T12:39:10.658Z,9.94
2017-11-17T12:40:10.654Z,10.04
2017-11-17T12:41:10.653Z,9.92
2017-11-17T12:42:10.647Z,9.89
2017-11-17T12:43:10.643Z,9.83
2017-11-17T12:44:10.641Z,9.86
2017-11-17T12:45:10.637Z,9.89
2017-11-17T12:46:10.634Z,10.07
2017-11-17T12:47:10.630Z,10.09
2017-11-17T12:48:10.628Z,10.07
2017-11-17T12:49:10.622Z,10.20
2017-11-17T12:50:10.619Z,10.15
2017-11-17T12:51:10.617Z,10.07
2017-11-17T12:52:10.613Z,10.09
2017-11-17T12:53:10.609Z,10.09
2017-11-17T12:54:10.605Z,10.15
2017-11-17T12:55:10.600Z,10.25
2017-11-17T12:56:10.600Z,10.25
2017-11-17T12:57:10.597Z,10.19
2017-11-17T12:58:10.592Z,10.23
2017-11-17T12:59:10.587Z,10.35
2017-11-17T13:00:10.585Z,10.28
2017-11-17T13:01:10.582Z,10.30
2017-11-17T13:02:12.204Z,10.35
2017-11-17T13:03:10.573Z,10.41
2017-11-17T13:04:10.571Z,10.35
2017-11-17T13:05:10.567Z,10.41
2017-11-17T13:06:10.564Z,10.37
2017-11-17T13:07:10.561Z,10.26
2017-11-17T13:08:10.559Z,10.23
2017-11-17T13:09:10.703Z,10.19
2017-11-17T13:10:10.549Z,10.17
2017-11-17T13:11:10.546Z,10.23
2017-11-17T13:12:10.544Z,10.23
2017-11-17T13:13:10.541Z,10.25